sensor_id;sensor_type;location;lat;lon;timestamp;pressure;altitude;pressure_sealevel;temperature;humidity
11678;BME280;5895;41.950;24.372;2022-11-28T00:02:26;87029.66;;;-0.18;75.07
11678;BME280;5895;41.950;24.372;2022-11-28T00:04:54;87022.19;;;-0.19;74.60
11678;BME280;5895;41.950;24.372;2022-11-28T00:07:21;87018.38;;;-0.15;74.53
11678;BME280;5895;41.950;24.372;2022-11-28T00:09:48;87016.91;;;-0.10;74.84
11678;BME280;5895;41.950;24.372;2022-11-28T00:12:17;87021.38;;;-0.04;73.78
11678;BME280;5895;41.950;24.372;2022-11-28T00:14:44;87024.69;;;0.05;73.69
11678;BME280;5895;41.950;24.372;2022-11-28T00:17:11;87032.34;;;0.13;73.81
11678;BME280;5895;41.950;24.372;2022-11-28T00:19:38;87028.34;;;0.11;74.29
11678;BME280;5895;41.950;24.372;2022-11-28T00:22:07;87035.06;;;0.12;73.86
11678;BME280;5895;41.950;24.372;2022-11-28T00:24:34;87026.59;;;0.19;72.98
11678;BME280;5895;41.950;24.372;2022-11-28T00:27:01;87030.25;;;0.25;73.81
11678;BME280;5895;41.950;24.372;2022-11-28T00:29:28;87021.31;;;0.29;73.52
11678;BME280;5895;41.950;24.372;2022-11-28T00:31:56;87024.31;;;0.33;73.06
11678;BME280;5895;41.950;24.372;2022-11-28T00:34:23;87009.31;;;0.38;73.50
11678;BME280;5895;41.950;24.372;2022-11-28T00:36:50;87017.13;;;0.36;73.71
11678;BME280;5895;41.950;24.372;2022-11-28T00:39:18;87013.63;;;0.37;73.71
11678;BME280;5895;41.950;24.372;2022-11-28T00:41:46;87010.09;;;0.38;73.62
11678;BME280;5895;41.950;24.372;2022-11-28T00:44:13;87001.69;;;0.30;74.25
11678;BME280;5895;41.950;24.372;2022-11-28T00:46:40;87009.47;;;0.28;73.83
11678;BME280;5895;41.950;24.372;2022-11-28T00:49:08;87006.31;;;0.34;74.28
11678;BME280;5895;41.950;24.372;2022-11-28T00:51:35;86997.56;;;0.29;74.08
11678;BME280;5895;41.950;24.372;2022-11-28T00:54:04;87000.56;;;0.32;74.63
11678;BME280;5895;41.950;24.372;2022-11-28T00:56:34;87001.81;;;0.36;74.41
11678;BME280;5895;41.950;24.372;2022-11-28T00:59:02;87002.00;;;0.35;74.81
11678;BME280;5895;41.950;24.372;2022-11-28T01:01:31;87008.50;;;0.37;74.88
11678;BME280;5895;41.950;24.372;2022-11-28T01:04:00;87005.47;;;0.42;74.37
11678;BME280;5895;41.950;24.372;2022-11-28T01:06:29;87006.25;;;0.42;74.67
11678;BME280;5895;41.950;24.372;2022-11-28T01:08:57;86997.19;;;0.40;74.55
11678;BME280;5895;41.950;24.372;2022-11-28T01:11:25;87000.69;;;0.39;74.88
11678;BME280;5895;41.950;24.372;2022-11-28T01:13:55;87001.03;;;0.36;75.08
11678;BME280;5895;41.950;24.372;2022-11-28T01:16:23;87005.34;;;0.35;74.99
11678;BME280;5895;41.950;24.372;2022-11-28T01:18:50;86993.38;;;0.36;74.87
11678;BME280;5895;41.950;24.372;2022-11-28T01:21:18;86996.72;;;0.36;75.13
11678;BME280;5895;41.950;24.372;2022-11-28T01:23:46;86997.69;;;0.35;75.46
11678;BME280;5895;41.950;24.372;2022-11-28T01:26:16;86997.03;;;0.33;75.62
11678;BME280;5895;41.950;24.372;2022-11-28T01:28:43;86985.25;;;0.32;75.40
11678;BME280;5895;41.950;24.372;2022-11-28T01:31:14;86986.03;;;0.33;75.99
11678;BME280;5895;41.950;24.372;2022-11-28T01:33:42;86988.75;;;0.31;76.33
11678;BME280;5895;41.950;24.372;2022-11-28T01:36:10;86985.09;;;0.25;76.18
11678;BME280;5895;41.950;24.372;2022-11-28T01:38:38;86976.31;;;0.28;76.18
11678;BME280;5895;41.950;24.372;2022-11-28T01:41:05;86975.38;;;0.29;75.71
11678;BME280;5895;41.950;24.372;2022-11-28T01:43:33;86973.75;;;0.28;76.54
11678;BME280;5895;41.950;24.372;2022-11-28T01:46:01;86970.28;;;0.29;76.53
11678;BME280;5895;41.950;24.372;2022-11-28T01:48:33;86964.69;;;0.25;76.80
11678;BME280;5895;41.950;24.372;2022-11-28T01:51:06;86963.09;;;0.24;76.96
11678;BME280;5895;41.950;24.372;2022-11-28T01:53:36;86974.09;;;0.25;76.77
11678;BME280;5895;41.950;24.372;2022-11-28T01:56:08;86965.50;;;0.26;77.25
11678;BME280;5895;41.950;24.372;2022-11-28T01:58:40;86964.56;;;0.19;77.59
11678;BME280;5895;41.950;24.372;2022-11-28T02:01:09;86956.31;;;0.09;76.16
11678;BME280;5895;41.950;24.372;2022-11-28T02:03:42;86955.34;;;0.10;77.10
11678;BME280;5895;41.950;24.372;2022-11-28T02:06:13;86953.44;;;0.12;77.24
11678;BME280;5895;41.950;24.372;2022-11-28T02:08:41;86951.03;;;0.10;77.21
11678;BME280;5895;41.950;24.372;2022-11-28T02:11:26;86951.81;;;0.11;76.90
11678;BME280;5895;41.950;24.372;2022-11-28T02:14:01;86947.69;;;0.10;76.71
11678;BME280;5895;41.950;24.372;2022-11-28T02:16:49;86945.59;;;0.13;76.71
11678;BME280;5895;41.950;24.372;2022-11-28T02:22:22;86939.72;;;0.13;76.34
11678;BME280;5895;41.950;24.372;2022-11-28T02:25:02;86951.50;;;0.14;76.58
11678;BME280;5895;41.950;24.372;2022-11-28T02:27:51;86938.94;;;0.12;77.06
11678;BME280;5895;41.950;24.372;2022-11-28T02:30:28;86939.72;;;0.13;76.92
11678;BME280;5895;41.950;24.372;2022-11-28T02:33:07;86938.56;;;0.15;77.35
11678;BME280;5895;41.950;24.372;2022-11-28T02:35:43;86938.09;;;0.20;77.00
11678;BME280;5895;41.950;24.372;2022-11-28T02:38:19;86935.53;;;0.20;76.74
11678;BME280;5895;41.950;24.372;2022-11-28T02:40:53;86934.25;;;0.24;76.40
11678;BME280;5895;41.950;24.372;2022-11-28T02:43:31;86932.00;;;0.29;76.41
11678;BME280;5895;41.950;24.372;2022-11-28T02:46:06;86931.03;;;0.30;75.62
11678;BME280;5895;41.950;24.372;2022-11-28T02:48:41;86934.56;;;0.29;76.40
11678;BME280;5895;41.950;24.372;2022-11-28T02:51:15;86943.63;;;0.32;77.21
11678;BME280;5895;41.950;24.372;2022-11-28T02:53:45;86932.63;;;0.31;75.74
11678;BME280;5895;41.950;24.372;2022-11-28T02:56:12;86921.94;;;0.28;76.19
11678;BME280;5895;41.950;24.372;2022-11-28T02:58:39;86929.09;;;0.32;76.28
11678;BME280;5895;41.950;24.372;2022-11-28T03:01:15;86931.94;;;0.37;77.11
11678;BME280;5895;41.950;24.372;2022-11-28T03:04:03;86931.63;;;0.40;77.75
11678;BME280;5895;41.950;24.372;2022-11-28T03:06:40;86929.38;;;0.45;76.70
11678;BME280;5895;41.950;24.372;2022-11-28T03:09:21;86931.09;;;0.45;76.60
11678;BME280;5895;41.950;24.372;2022-11-28T03:12:01;86929.88;;;0.41;76.46
11678;BME280;5895;41.950;24.372;2022-11-28T03:14:44;86933.88;;;0.35;76.87
11678;BME280;5895;41.950;24.372;2022-11-28T03:17:20;86928.78;;;0.35;77.18
11678;BME280;5895;41.950;24.372;2022-11-28T03:19:57;86925.94;;;0.30;76.90
11678;BME280;5895;41.950;24.372;2022-11-28T03:22:29;86927.53;;;0.31;77.07
11678;BME280;5895;41.950;24.372;2022-11-28T03:25:04;86924.00;;;0.32;76.96
11678;BME280;5895;41.950;24.372;2022-11-28T03:27:37;86923.69;;;0.35;76.41
11678;BME280;5895;41.950;24.372;2022-11-28T03:30:12;86930.97;;;0.38;76.92
11678;BME280;5895;41.950;24.372;2022-11-28T03:32:46;86927.63;;;0.38;76.66
11678;BME280;5895;41.950;24.372;2022-11-28T03:35:19;86924.28;;;0.37;77.21
11678;BME280;5895;41.950;24.372;2022-11-28T03:37:52;86921.56;;;0.39;76.88
11678;BME280;5895;41.950;24.372;2022-11-28T03:40:22;86933.53;;;0.38;76.49
11678;BME280;5895;41.950;24.372;2022-11-28T03:43:02;86929.56;;;0.36;76.48
11678;BME280;5895;41.950;24.372;2022-11-28T03:45:36;86928.44;;;0.38;76.70
11678;BME280;5895;41.950;24.372;2022-11-28T03:48:07;86921.44;;;0.40;76.82
11678;BME280;5895;41.950;24.372;2022-11-28T03:50:41;86908.38;;;0.35;77.24
11678;BME280;5895;41.950;24.372;2022-11-28T03:53:14;86920.47;;;0.41;77.28
11678;BME280;5895;41.950;24.372;2022-11-28T03:55:47;86921.25;;;0.42;76.82
11678;BME280;5895;41.950;24.372;2022-11-28T03:58:21;86922.38;;;0.39;77.07
11678;BME280;5895;41.950;24.372;2022-11-28T04:00:57;86930.19;;;0.38;77.13
11678;BME280;5895;41.950;24.372;2022-11-28T04:03:35;86919.03;;;0.39;77.90
11678;BME280;5895;41.950;24.372;2022-11-28T04:06:13;86926.69;;;0.39;77.53
11678;BME280;5895;41.950;24.372;2022-11-28T04:08:46;86927.31;;;0.41;77.43
11678;BME280;5895;41.950;24.372;2022-11-28T04:11:18;86928.13;;;0.41;77.41
11678;BME280;5895;41.950;24.372;2022-11-28T04:13:50;86934.69;;;0.36;76.82
11678;BME280;5895;41.950;24.372;2022-11-28T04:16:22;86937.41;;;0.34;77.51
11678;BME280;5895;41.950;24.372;2022-11-28T04:18:54;86932.31;;;0.34;77.41
11678;BME280;5895;41.950;24.372;2022-11-28T04:21:28;86937.41;;;0.34;77.49
11678;BME280;5895;41.950;24.372;2022-11-28T04:24:00;86938.34;;;0.33;76.96
11678;BME280;5895;41.950;24.372;2022-11-28T04:26:31;86928.19;;;0.25;77.65
11678;BME280;5895;41.950;24.372;2022-11-28T04:29:01;86931.69;;;0.24;77.59
11678;BME280;5895;41.950;24.372;2022-11-28T04:31:31;86935.22;;;0.23;76.95
11678;BME280;5895;41.950;24.372;2022-11-28T04:34:03;86940.63;;;0.20;78.15
11678;BME280;5895;41.950;24.372;2022-11-28T04:36:35;86941.59;;;0.19;77.24
11678;BME280;5895;41.950;24.372;2022-11-28T04:39:05;86944.47;;;0.16;77.74
11678;BME280;5895;41.950;24.372;2022-11-28T04:41:36;86948.47;;;0.10;77.93
11678;BME280;5895;41.950;24.372;2022-11-28T04:44:09;86948.03;;;0.07;77.36
11678;BME280;5895;41.950;24.372;2022-11-28T04:46:41;86949.31;;;0.03;77.86
11678;BME280;5895;41.950;24.372;2022-11-28T04:49:09;86946.13;;;0.01;77.68
11678;BME280;5895;41.950;24.372;2022-11-28T04:51:45;86948.50;;;0.02;78.47
11678;BME280;5895;41.950;24.372;2022-11-28T04:54:21;86952.81;;;0.02;78.22
11678;BME280;5895;41.950;24.372;2022-11-28T04:56:53;86948.03;;;-0.02;77.60
11678;BME280;5895;41.950;24.372;2022-11-28T04:59:23;86940.72;;;-0.05;77.85
11678;BME280;5895;41.950;24.372;2022-11-28T05:01:53;86940.09;;;-0.07;77.70
11678;BME280;5895;41.950;24.372;2022-11-28T05:04:23;86944.38;;;-0.07;78.25
11678;BME280;5895;41.950;24.372;2022-11-28T05:07:00;86946.63;;;-0.04;78.94
11678;BME280;5895;41.950;24.372;2022-11-28T05:09:28;86942.94;;;-0.02;78.23
11678;BME280;5895;41.950;24.372;2022-11-28T05:11:55;86949.63;;;-0.01;78.49
11678;BME280;5895;41.950;24.372;2022-11-28T05:14:22;86953.31;;;-0.03;78.14
11678;BME280;5895;41.950;24.372;2022-11-28T05:16:49;86953.78;;;0.01;77.83
11678;BME280;5895;41.950;24.372;2022-11-28T05:19:17;86956.97;;;0.03;78.21
11678;BME280;5895;41.950;24.372;2022-11-28T05:21:44;86954.06;;;0.06;77.88
11678;BME280;5895;41.950;24.372;2022-11-28T05:24:12;86952.16;;;0.08;77.34
11678;BME280;5895;41.950;24.372;2022-11-28T05:26:39;86948.66;;;0.09;77.76
11678;BME280;5895;41.950;24.372;2022-11-28T05:29:06;86951.81;;;0.11;77.39
11678;BME280;5895;41.950;24.372;2022-11-28T05:31:33;86948.66;;;0.09;77.63
11678;BME280;5895;41.950;24.372;2022-11-28T05:34:00;86954.38;;;0.11;77.48
11678;BME280;5895;41.950;24.372;2022-11-28T05:36:28;86947.84;;;0.08;77.61
11678;BME280;5895;41.950;24.372;2022-11-28T05:38:55;86956.91;;;0.11;77.46
11678;BME280;5895;41.950;24.372;2022-11-28T05:41:25;86952.63;;;0.11;77.17
11678;BME280;5895;41.950;24.372;2022-11-28T05:43:53;86948.66;;;0.09;77.31
11678;BME280;5895;41.950;24.372;2022-11-28T05:46:21;86954.53;;;0.09;77.45
11678;BME280;5895;41.950;24.372;2022-11-28T05:48:48;86953.44;;;0.12;77.52
11678;BME280;5895;41.950;24.372;2022-11-28T05:51:16;86946.72;;;0.11;77.02
11678;BME280;5895;41.950;24.372;2022-11-28T05:53:43;86955.34;;;0.10;76.58
11678;BME280;5895;41.950;24.372;2022-11-28T05:56:12;86955.34;;;0.10;76.69
11678;BME280;5895;41.950;24.372;2022-11-28T05:58:42;86956.91;;;0.11;76.46
11678;BME280;5895;41.950;24.372;2022-11-28T06:01:11;86954.22;;;0.12;76.90
11678;BME280;5895;41.950;24.372;2022-11-28T06:03:39;86953.44;;;0.12;76.94
11678;BME280;5895;41.950;24.372;2022-11-28T06:06:11;86960.75;;;0.15;76.84
11678;BME280;5895;41.950;24.372;2022-11-28T06:08:38;86956.25;;;0.17;77.19
11678;BME280;5895;41.950;24.372;2022-11-28T06:11:06;86949.25;;;0.19;76.56
11678;BME280;5895;41.950;24.372;2022-11-28T06:13:33;86955.94;;;0.20;77.02
11678;BME280;5895;41.950;24.372;2022-11-28T06:16:02;86964.06;;;0.23;76.49
11678;BME280;5895;41.950;24.372;2022-11-28T06:18:32;86965.00;;;0.22;76.19
11678;BME280;5895;41.950;24.372;2022-11-28T06:21:00;86965.66;;;0.24;75.89
11678;BME280;5895;41.950;24.372;2022-11-28T06:23:27;86970.59;;;0.26;76.69
11678;BME280;5895;41.950;24.372;2022-11-28T06:25:55;86965.16;;;0.29;76.17
11678;BME280;5895;41.950;24.372;2022-11-28T06:28:22;86969.63;;;0.27;76.54
11678;BME280;5895;41.950;24.372;2022-11-28T06:30:49;86964.03;;;0.32;75.89
11678;BME280;5895;41.950;24.372;2022-11-28T06:33:17;86962.91;;;0.34;76.16
11678;BME280;5895;41.950;24.372;2022-11-28T06:35:45;86966.09;;;0.36;75.73
11678;BME280;5895;41.950;24.372;2022-11-28T06:38:12;86967.06;;;0.35;76.22
11678;BME280;5895;41.950;24.372;2022-11-28T06:40:39;86969.25;;;0.38;76.43
11678;BME280;5895;41.950;24.372;2022-11-28T06:43:06;86964.94;;;0.39;75.71
11678;BME280;5895;41.950;24.372;2022-11-28T06:45:34;86963.19;;;0.39;75.50
11678;BME280;5895;41.950;24.372;2022-11-28T06:48:01;86965.13;;;0.37;76.06
11678;BME280;5895;41.950;24.372;2022-11-28T06:50:31;86962.25;;;0.40;76.26
11678;BME280;5895;41.950;24.372;2022-11-28T06:52:58;86967.66;;;0.45;75.67
11678;BME280;5895;41.950;24.372;2022-11-28T06:55:25;86959.66;;;0.48;75.30
11678;BME280;5895;41.950;24.372;2022-11-28T06:57:52;86960.56;;;0.56;76.31
11678;BME280;5895;41.950;24.372;2022-11-28T07:00:19;86960.38;;;0.65;75.97
11678;BME280;5895;41.950;24.372;2022-11-28T07:02:46;86955.38;;;0.72;75.18
11678;BME280;5895;41.950;24.372;2022-11-28T07:05:14;86961.59;;;0.77;74.87
11678;BME280;5895;41.950;24.372;2022-11-28T07:07:42;86952.81;;;0.80;74.83
11678;BME280;5895;41.950;24.372;2022-11-28T07:10:10;86957.25;;;0.86;75.22
11678;BME280;5895;41.950;24.372;2022-11-28T07:12:37;86956.56;;;0.92;74.80
11678;BME280;5895;41.950;24.372;2022-11-28T07:15:06;86952.25;;;0.93;74.91
11678;BME280;5895;41.950;24.372;2022-11-28T07:17:33;86954.63;;;0.94;75.07
11678;BME280;5895;41.950;24.372;2022-11-28T07:20:00;86949.63;;;1.01;74.63
11678;BME280;5895;41.950;24.372;2022-11-28T07:22:27;86944.50;;;1.01;74.12
11678;BME280;5895;41.950;24.372;2022-11-28T07:24:56;86946.56;;;1.05;74.86
11678;BME280;5895;41.950;24.372;2022-11-28T07:27:23;86947.91;;;1.01;74.03
11678;BME280;5895;41.950;24.372;2022-11-28T07:29:50;86949.47;;;1.02;74.41
11678;BME280;5895;41.950;24.372;2022-11-28T07:32:17;86951.06;;;1.03;74.67
11678;BME280;5895;41.950;24.372;2022-11-28T07:34:45;86944.97;;;1.04;74.76
11678;BME280;5895;41.950;24.372;2022-11-28T07:37:12;86946.25;;;1.09;74.62
11678;BME280;5895;41.950;24.372;2022-11-28T07:39:40;86949.41;;;1.11;74.16
11678;BME280;5895;41.950;24.372;2022-11-28T07:42:10;86945.75;;;1.13;74.43
11678;BME280;5895;41.950;24.372;2022-11-28T07:44:38;86939.75;;;1.21;73.94
11678;BME280;5895;41.950;24.372;2022-11-28T07:47:05;86941.34;;;1.22;73.66
11678;BME280;5895;41.950;24.372;2022-11-28T07:49:32;86942.13;;;1.22;74.16
11678;BME280;5895;41.950;24.372;2022-11-28T07:51:59;86932.72;;;1.23;73.39
11678;BME280;5895;41.950;24.372;2022-11-28T07:54:26;86936.34;;;1.28;74.12
11678;BME280;5895;41.950;24.372;2022-11-28T07:56:53;86931.69;;;1.32;73.26
11678;BME280;5895;41.950;24.372;2022-11-28T07:59:22;86925.59;;;1.33;73.51
11678;BME280;5895;41.950;24.372;2022-11-28T08:01:49;86926.69;;;1.39;74.00
11678;BME280;5895;41.950;24.372;2022-11-28T08:04:18;86924.88;;;1.47;73.96
11678;BME280;5895;41.950;24.372;2022-11-28T08:06:45;86921.72;;;1.60;73.63
11678;BME280;5895;41.950;24.372;2022-11-28T08:09:12;86922.00;;;1.65;73.09
11678;BME280;5895;41.950;24.372;2022-11-28T08:11:40;86924.03;;;1.70;73.02
11678;BME280;5895;41.950;24.372;2022-11-28T08:14:08;86935.16;;;1.77;73.17
11678;BME280;5895;41.950;24.372;2022-11-28T08:16:36;86936.41;;;1.81;72.96
11678;BME280;5895;41.950;24.372;2022-11-28T08:19:05;86940.59;;;1.74;72.99
11678;BME280;5895;41.950;24.372;2022-11-28T08:21:33;86935.94;;;1.77;73.01
11678;BME280;5895;41.950;24.372;2022-11-28T08:24:01;86936.72;;;1.78;72.62
11678;BME280;5895;41.950;24.372;2022-11-28T08:26:30;86937.97;;;1.82;72.87
11678;BME280;5895;41.950;24.372;2022-11-28T08:28:58;86926.16;;;1.96;72.56
11678;BME280;5895;41.950;24.372;2022-11-28T08:31:27;86931.63;;;2.07;72.05
11678;BME280;5895;41.950;24.372;2022-11-28T08:33:58;86929.53;;;2.26;72.29
11678;BME280;5895;41.950;24.372;2022-11-28T08:36:26;86914.72;;;2.36;71.67
11678;BME280;5895;41.950;24.372;2022-11-28T08:38:53;86918.41;;;2.48;71.66
11678;BME280;5895;41.950;24.372;2022-11-28T08:41:22;86910.06;;;2.61;71.40
11678;BME280;5895;41.950;24.372;2022-11-28T08:43:49;86918.69;;;2.75;70.20
11678;BME280;5895;41.950;24.372;2022-11-28T08:46:19;86918.13;;;2.94;71.05
11678;BME280;5895;41.950;24.372;2022-11-28T08:48:47;86916.91;;;2.90;69.53
11678;BME280;5895;41.950;24.372;2022-11-28T08:51:18;86915.97;;;2.76;69.63
11678;BME280;5895;41.950;24.372;2022-11-28T08:53:45;86918.53;;;2.76;70.26
11678;BME280;5895;41.950;24.372;2022-11-28T08:56:12;86908.69;;;2.80;69.87
11678;BME280;5895;41.950;24.372;2022-11-28T08:58:39;86911.44;;;2.93;69.77
11678;BME280;5895;41.950;24.372;2022-11-28T09:01:14;86905.75;;;2.98;69.30
11678;BME280;5895;41.950;24.372;2022-11-28T09:03:41;86911.94;;;3.03;69.59
11678;BME280;5895;41.950;24.372;2022-11-28T09:06:08;86912.41;;;3.13;69.34
11678;BME280;5895;41.950;24.372;2022-11-28T09:08:37;86899.03;;;3.18;69.36
11678;BME280;5895;41.950;24.372;2022-11-28T09:11:06;86903.03;;;3.21;68.65
11678;BME280;5895;41.950;24.372;2022-11-28T09:13:34;86888.84;;;3.25;68.86
11678;BME280;5895;41.950;24.372;2022-11-28T09:16:02;86888.94;;;3.31;68.87
11678;BME280;5895;41.950;24.372;2022-11-28T09:18:30;86883.84;;;3.38;71.19
11678;BME280;5895;41.950;24.372;2022-11-28T09:20:58;86882.88;;;3.39;68.70
11678;BME280;5895;41.950;24.372;2022-11-28T09:23:26;86883.91;;;3.44;68.57
11678;BME280;5895;41.950;24.372;2022-11-28T09:25:55;86878.47;;;3.54;68.80
11678;BME280;5895;41.950;24.372;2022-11-28T09:28:23;86883.59;;;3.54;68.44
11678;BME280;5895;41.950;24.372;2022-11-28T09:30:59;86876.50;;;3.56;68.14
11678;BME280;5895;41.950;24.372;2022-11-28T09:33:27;86882.84;;;3.60;67.93
11678;BME280;5895;41.950;24.372;2022-11-28T09:35:54;86872.44;;;3.68;68.09
11678;BME280;5895;41.950;24.372;2022-11-28T09:38:23;86872.69;;;3.74;68.33
11678;BME280;5895;41.950;24.372;2022-11-28T09:40:50;86866.19;;;3.78;67.76
11678;BME280;5895;41.950;24.372;2022-11-28T09:43:24;86869.22;;;3.88;67.77
11678;BME280;5895;41.950;24.372;2022-11-28T09:45:53;86853.31;;;3.99;67.53
11678;BME280;5895;41.950;24.372;2022-11-28T09:48:26;86847.03;;;4.08;67.54
11678;BME280;5895;41.950;24.372;2022-11-28T09:50:57;86853.66;;;4.31;70.50
11678;BME280;5895;41.950;24.372;2022-11-28T09:53:33;86848.16;;;4.34;67.85
11678;BME280;5895;41.950;24.372;2022-11-28T09:56:07;86840.06;;;4.37;67.16
11678;BME280;5895;41.950;24.372;2022-11-28T09:58:43;86849.38;;;4.38;67.11
11678;BME280;5895;41.950;24.372;2022-11-28T10:01:16;86843.84;;;4.41;67.10
11678;BME280;5895;41.950;24.372;2022-11-28T10:03:51;86841.28;;;4.41;67.30
11678;BME280;5895;41.950;24.372;2022-11-28T10:06:23;86841.44;;;4.33;67.07
11678;BME280;5895;41.950;24.372;2022-11-28T10:12:02;86833.84;;;4.18;67.22
11678;BME280;5895;41.950;24.372;2022-11-28T10:14:53;86840.19;;;4.15;67.50
11678;BME280;5895;41.950;24.372;2022-11-28T10:17:35;86831.03;;;4.06;67.86
11678;BME280;5895;41.950;24.372;2022-11-28T10:20:07;86836.75;;;4.08;67.78
11678;BME280;5895;41.950;24.372;2022-11-28T10:22:40;86832.66;;;4.20;67.54
11678;BME280;5895;41.950;24.372;2022-11-28T10:25:14;86823.03;;;4.22;67.23
11678;BME280;5895;41.950;24.372;2022-11-28T10:27:44;86820.81;;;4.19;67.49
11678;BME280;5895;41.950;24.372;2022-11-28T10:30:20;86822.03;;;4.23;67.17
11678;BME280;5895;41.950;24.372;2022-11-28T10:32:56;86817.56;;;4.39;67.02
11678;BME280;5895;41.950;24.372;2022-11-28T10:35:31;86811.25;;;4.48;66.92
11678;BME280;5895;41.950;24.372;2022-11-28T10:38:01;86817.00;;;4.43;66.85
11678;BME280;5895;41.950;24.372;2022-11-28T10:40:35;86814.91;;;4.25;66.52
11678;BME280;5895;41.950;24.372;2022-11-28T10:43:13;86812.50;;;4.11;67.01
11678;BME280;5895;41.950;24.372;2022-11-28T10:45:49;86814.41;;;4.02;67.23
11678;BME280;5895;41.950;24.372;2022-11-28T10:48:31;86816.72;;;3.90;67.69
11678;BME280;5895;41.950;24.372;2022-11-28T10:51:17;86812.72;;;3.81;68.01
11678;BME280;5895;41.950;24.372;2022-11-28T10:53:55;86818.94;;;3.65;68.08
11678;BME280;5895;41.950;24.372;2022-11-28T10:56:33;86811.50;;;3.42;68.34
11678;BME280;5895;41.950;24.372;2022-11-28T10:59:09;86813.91;;;3.23;69.21
11678;BME280;5895;41.950;24.372;2022-11-28T11:01:41;86818.44;;;3.21;69.56
11678;BME280;5895;41.950;24.372;2022-11-28T11:04:15;86813.16;;;3.29;70.09
11678;BME280;5895;41.950;24.372;2022-11-28T11:06:48;86820.72;;;3.37;68.85
11678;BME280;5895;41.950;24.372;2022-11-28T11:09:22;86812.66;;;3.40;69.17
11678;BME280;5895;41.950;24.372;2022-11-28T11:11:52;86818.38;;;3.42;68.99
11678;BME280;5895;41.950;24.372;2022-11-28T11:14:33;86804.94;;;3.40;68.49
11678;BME280;5895;41.950;24.372;2022-11-28T11:17:02;86809.84;;;3.35;69.05
11678;BME280;5895;41.950;24.372;2022-11-28T11:19:32;86806.06;;;3.31;68.92
11678;BME280;5895;41.950;24.372;2022-11-28T11:22:03;86797.28;;;3.18;68.86
11678;BME280;5895;41.950;24.372;2022-11-28T11:24:31;86804.09;;;3.05;69.35
11678;BME280;5895;41.950;24.372;2022-11-28T11:27:05;86800.31;;;3.01;69.75
11678;BME280;5895;41.950;24.372;2022-11-28T11:29:34;86793.75;;;3.19;71.09
11678;BME280;5895;41.950;24.372;2022-11-28T11:32:05;86794.22;;;3.30;70.21
11678;BME280;5895;41.950;24.372;2022-11-28T11:34:36;86791.09;;;3.34;69.73
11678;BME280;5895;41.950;24.372;2022-11-28T11:37:20;86792.13;;;3.40;69.85
11678;BME280;5895;41.950;24.372;2022-11-28T11:39:48;86786.03;;;3.41;69.12
11678;BME280;5895;41.950;24.372;2022-11-28T11:42:20;86775.59;;;3.42;69.01
11678;BME280;5895;41.950;24.372;2022-11-28T11:44:48;86785.19;;;3.34;69.08
11678;BME280;5895;41.950;24.372;2022-11-28T11:47:17;86783.59;;;3.33;69.25
11678;BME280;5895;41.950;24.372;2022-11-28T11:49:46;86782.03;;;3.32;70.01
11678;BME280;5895;41.950;24.372;2022-11-28T11:52:17;86785.19;;;3.34;69.50
11678;BME280;5895;41.950;24.372;2022-11-28T11:54:56;86790.31;;;3.34;70.14
11678;BME280;5895;41.950;24.372;2022-11-28T11:57:27;86787.50;;;3.29;69.58
11678;BME280;5895;41.950;24.372;2022-11-28T11:59:59;86787.28;;;3.24;69.56
11678;BME280;5895;41.950;24.372;2022-11-28T12:02:35;86794.38;;;3.22;70.60
11678;BME280;5895;41.950;24.372;2022-11-28T12:05:09;86788.63;;;3.19;70.28
11678;BME280;5895;41.950;24.372;2022-11-28T12:07:40;86795.28;;;3.14;70.08
11678;BME280;5895;41.950;24.372;2022-11-28T12:10:16;86799.44;;;3.15;70.63
11678;BME280;5895;41.950;24.372;2022-11-28T12:12:44;86792.16;;;3.18;70.55
11678;BME280;5895;41.950;24.372;2022-11-28T12:15:15;86786.25;;;3.18;70.26
11678;BME280;5895;41.950;24.372;2022-11-28T12:17:56;86792.31;;;3.10;70.68
11678;BME280;5895;41.950;24.372;2022-11-28T12:20:47;86800.91;;;3.03;71.09
11678;BME280;5895;41.950;24.372;2022-11-28T12:23:27;86788.47;;;3.00;71.05
11678;BME280;5895;41.950;24.372;2022-11-28T12:26:04;86792.19;;;2.97;70.93
11678;BME280;5895;41.950;24.372;2022-11-28T12:28:47;86794.53;;;2.92;71.11
11678;BME280;5895;41.950;24.372;2022-11-28T12:31:21;86813.19;;;2.86;71.49
11678;BME280;5895;41.950;24.372;2022-11-28T12:34:05;86811.59;;;2.85;71.13
11678;BME280;5895;41.950;24.372;2022-11-28T12:36:36;86801.34;;;2.85;70.92
11678;BME280;5895;41.950;24.372;2022-11-28T12:39:15;86794.28;;;2.87;71.22
11678;BME280;5895;41.950;24.372;2022-11-28T12:42:26;86800.19;;;2.87;71.64
11678;BME280;5895;41.950;24.372;2022-11-28T12:45:21;86803.91;;;2.85;71.30
11678;BME280;5895;41.950;24.372;2022-11-28T12:47:58;86811.97;;;2.82;70.84
11678;BME280;5895;41.950;24.372;2022-11-28T12:50:45;86802.09;;;2.79;70.47
11678;BME280;5895;41.950;24.372;2022-11-28T12:53:32;86806.16;;;2.73;71.76
11678;BME280;5895;41.950;24.372;2022-11-28T12:56:12;86807.50;;;2.69;71.04
11678;BME280;5895;41.950;24.372;2022-11-28T12:58:50;86810.63;;;2.64;71.16
11678;BME280;5895;41.950;24.372;2022-11-28T13:01:33;86807.81;;;2.59;71.58
11678;BME280;5895;41.950;24.372;2022-11-28T13:04:14;86810.91;;;2.55;71.32
11678;BME280;5895;41.950;24.372;2022-11-28T13:06:56;86803.34;;;2.47;70.97
11678;BME280;5895;41.950;24.372;2022-11-28T13:09:29;86800.47;;;2.35;70.82
11678;BME280;5895;41.950;24.372;2022-11-28T13:12:10;86796.94;;;2.36;71.41
11678;BME280;5895;41.950;24.372;2022-11-28T13:14:47;86805.41;;;2.36;70.89
11678;BME280;5895;41.950;24.372;2022-11-28T13:17:26;86801.25;;;2.35;71.46
11678;BME280;5895;41.950;24.372;2022-11-28T13:20:02;86798.34;;;2.38;70.85
11678;BME280;5895;41.950;24.372;2022-11-28T13:22:40;86796.81;;;2.44;71.49
11678;BME280;5895;41.950;24.372;2022-11-28T13:25:18;86795.06;;;2.45;71.00
11678;BME280;5895;41.950;24.372;2022-11-28T13:27:54;86799.97;;;2.46;70.46
11678;BME280;5895;41.950;24.372;2022-11-28T13:30:26;86802.72;;;2.45;71.30
11678;BME280;5895;41.950;24.372;2022-11-28T13:33:00;86793.66;;;2.42;70.77
11678;BME280;5895;41.950;24.372;2022-11-28T13:35:30;86804.00;;;2.34;70.81
11678;BME280;5895;41.950;24.372;2022-11-28T13:38:03;86802.06;;;2.36;71.46
11678;BME280;5895;41.950;24.372;2022-11-28T13:40:38;86805.94;;;2.32;70.79